sensor_id;sensor_type;location;lat;lon;timestamp;pressure;altitude;pressure_sealevel;temperature;humidity
13732;BME280;6937;56.096;12.664;2023-06-22T00:01:27;102739.19;;;18.16;100.00
13732;BME280;6937;56.096;12.664;2023-06-22T00:03:52;102725.03;;;18.13;100.00
13732;BME280;6937;56.096;12.664;2023-06-22T00:06:17;102724.56;;;18.19;100.00
13732;BME280;6937;56.096;12.664;2023-06-22T00:08:43;102715.47;;;18.20;100.00
13732;BME280;6937;56.096;12.664;2023-06-22T00:11:08;102725.75;;;18.27;100.00
13732;BME280;6937;56.096;12.664;2023-06-22T00:13:34;102712.84;;;18.31;100.00
13732;BME280;6937;56.096;12.664;2023-06-22T00:15:59;102687.09;;;18.25;100.00
13732;BME280;6937;56.096;12.664;2023-06-22T00:18:24;102676.16;;;18.27;100.00
13732;BME280;6937;56.096;12.664;2023-06-22T00:20:56;102670.28;;;18.33;100.00
13732;BME280;6937;56.096;12.664;2023-06-22T00:23:24;102652.19;;;18.33;100.00
13732;BME280;6937;56.096;12.664;2023-06-22T00:25:50;102622.88;;;18.27;100.00
13732;BME280;6937;56.096;12.664;2023-06-22T00:28:16;102608.84;;;18.33;100.00
13732;BME280;6937;56.096;12.664;2023-06-22T00:30:41;102613.44;;;18.33;100.00
13732;BME280;6937;56.096;12.664;2023-06-22T00:33:06;102589.19;;;18.31;100.00
13732;BME280;6937;56.096;12.664;2023-06-22T00:35:33;102588.31;;;18.31;100.00
13732;BME280;6937;56.096;12.664;2023-06-22T00:37:59;102579.44;;;18.29;100.00
13732;BME280;6937;56.096;12.664;2023-06-22T00:40:29;102574.03;;;18.29;100.00
13732;BME280;6937;56.096;12.664;2023-06-22T00:42:55;102586.56;;;18.30;100.00
13732;BME280;6937;56.096;12.664;2023-06-22T00:45:21;102582.88;;;18.31;100.00
13732;BME280;6937;56.096;12.664;2023-06-22T00:47:51;102576.59;;;18.30;100.00
13732;BME280;6937;56.096;12.664;2023-06-22T00:50:20;102564.06;;;18.29;100.00
13732;BME280;6937;56.096;12.664;2023-06-22T00:52:56;102547.66;;;18.20;100.00
13732;BME280;6937;56.096;12.664;2023-06-22T00:55:22;102558.00;;;18.26;100.00
13732;BME280;6937;56.096;12.664;2023-06-22T00:57:48;102544.94;;;18.20;100.00
13732;BME280;6937;56.096;12.664;2023-06-22T01:00:15;102556.16;;;18.26;100.00
13732;BME280;6937;56.096;12.664;2023-06-22T01:02:46;102537.69;;;18.20;100.00
13732;BME280;6937;56.096;12.664;2023-06-22T01:05:18;102549.78;;;18.27;100.00
13732;BME280;6937;56.096;12.664;2023-06-22T01:07:55;102527.59;;;18.22;100.00
13732;BME280;6937;56.096;12.664;2023-06-22T01:10:29;102522.91;;;18.13;100.00
13732;BME280;6937;56.096;12.664;2023-06-22T01:13:03;102518.47;;;18.12;100.00
13732;BME280;6937;56.096;12.664;2023-06-22T01:15:36;102536.44;;;18.13;100.00
13732;BME280;6937;56.096;12.664;2023-06-22T01:18:04;102543.78;;;18.11;100.00
13732;BME280;6937;56.096;12.664;2023-06-22T01:20:30;102539.84;;;18.04;100.00
13732;BME280;6937;56.096;12.664;2023-06-22T01:23:07;102543.41;;;18.05;100.00
13732;BME280;6937;56.096;12.664;2023-06-22T01:25:47;102535.53;;;18.02;100.00
13732;BME280;6937;56.096;12.664;2023-06-22T01:28:42;102543.63;;;18.02;100.00
13732;BME280;6937;56.096;12.664;2023-06-22T01:31:09;102539.34;;;17.99;100.00
13732;BME280;6937;56.096;12.664;2023-06-22T01:33:39;102535.63;;;18.00;100.00
13732;BME280;6937;56.096;12.664;2023-06-22T01:36:06;102548.28;;;18.00;100.00
13732;BME280;6937;56.096;12.664;2023-06-22T01:38:32;102546.81;;;17.96;100.00
13732;BME280;6937;56.096;12.664;2023-06-22T01:40:59;102545.59;;;18.00;100.00
13732;BME280;6937;56.096;12.664;2023-06-22T01:43:26;102546.91;;;17.94;100.00
13732;BME280;6937;56.096;12.664;2023-06-22T01:45:53;102547.50;;;17.86;100.00
13732;BME280;6937;56.096;12.664;2023-06-22T01:48:19;102557.69;;;17.83;100.00
13732;BME280;6937;56.096;12.664;2023-06-22T01:50:45;102556.09;;;17.80;100.00
13732;BME280;6937;56.096;12.664;2023-06-22T01:53:10;102556.09;;;17.80;100.00
13732;BME280;6937;56.096;12.664;2023-06-22T01:55:36;102557.06;;;17.79;100.00
13732;BME280;6937;56.096;12.664;2023-06-22T01:58:01;102557.16;;;17.78;100.00
13732;BME280;6937;56.096;12.664;2023-06-22T02:00:28;102562.78;;;17.75;100.00
13732;BME280;6937;56.096;12.664;2023-06-22T02:03:00;102559.34;;;17.73;100.00
13732;BME280;6937;56.096;12.664;2023-06-22T02:05:33;102572.09;;;17.71;100.00
13732;BME280;6937;56.096;12.664;2023-06-22T02:10:34;102573.22;;;17.68;100.00
13732;BME280;6937;56.096;12.664;2023-06-22T02:13:01;102581.31;;;17.68;100.00
13732;BME280;6937;56.096;12.664;2023-06-22T02:15:28;102582.53;;;17.64;100.00
13732;BME280;6937;56.096;12.664;2023-06-22T02:17:54;102592.47;;;17.64;100.00
13732;BME280;6937;56.096;12.664;2023-06-22T02:20:19;102600.69;;;17.62;100.00
13732;BME280;6937;56.096;12.664;2023-06-22T02:22:45;102597.47;;;17.57;100.00
13732;BME280;6937;56.096;12.664;2023-06-22T02:25:10;102590.00;;;17.61;100.00
13732;BME280;6937;56.096;12.664;2023-06-22T02:27:36;102585.69;;;17.58;100.00
13732;BME280;6937;56.096;12.664;2023-06-22T02:30:01;102577.66;;;17.57;100.00
13732;BME280;6937;56.096;12.664;2023-06-22T02:32:27;102576.56;;;17.59;100.00
13732;BME280;6937;56.096;12.664;2023-06-22T02:34:52;102575.38;;;17.63;100.00
13732;BME280;6937;56.096;12.664;2023-06-22T02:37:18;102571.56;;;17.66;100.00
13732;BME280;6937;56.096;12.664;2023-06-22T02:39:44;102574.94;;;17.69;100.00
13732;BME280;6937;56.096;12.664;2023-06-22T02:42:09;102576.66;;;17.70;100.00
13732;BME280;6937;56.096;12.664;2023-06-22T02:44:37;102572.97;;;17.71;100.00
13732;BME280;6937;56.096;12.664;2023-06-22T02:47:03;102577.13;;;17.64;100.00
13732;BME280;6937;56.096;12.664;2023-06-22T02:49:28;102578.84;;;17.65;100.00
13732;BME280;6937;56.096;12.664;2023-06-22T02:51:54;102579.28;;;17.59;100.00
13732;BME280;6937;56.096;12.664;2023-06-22T02:54:20;102575.59;;;17.60;100.00
13732;BME280;6937;56.096;12.664;2023-06-22T02:56:45;102573.19;;;17.56;100.00
13732;BME280;6937;56.096;12.664;2023-06-22T02:59:11;102565.94;;;17.56;100.00
13732;BME280;6937;56.096;12.664;2023-06-22T03:01:37;102572.91;;;17.60;100.00
13732;BME280;6937;56.096;12.664;2023-06-22T03:04:08;102579.19;;;17.61;100.00
13732;BME280;6937;56.096;12.664;2023-06-22T03:06:35;102581.31;;;17.56;100.00
13732;BME280;6937;56.096;12.664;2023-06-22T03:09:02;102588.38;;;17.58;100.00
13732;BME280;6937;56.096;12.664;2023-06-22T03:11:29;102596.50;;;17.58;100.00
13732;BME280;6937;56.096;12.664;2023-06-22T03:13:55;102602.66;;;17.60;100.00
13732;BME280;6937;56.096;12.664;2023-06-22T03:16:20;102610.66;;;17.62;100.00
13732;BME280;6937;56.096;12.664;2023-06-22T03:18:45;102620.47;;;17.63;100.00
13732;BME280;6937;56.096;12.664;2023-06-22T03:21:11;102611.94;;;17.56;100.00
13732;BME280;6937;56.096;12.664;2023-06-22T03:23:36;102619.97;;;17.58;100.00
13732;BME280;6937;56.096;12.664;2023-06-22T03:26:02;102613.34;;;17.49;100.00
13732;BME280;6937;56.096;12.664;2023-06-22T03:28:27;102618.09;;;17.46;100.00
13732;BME280;6937;56.096;12.664;2023-06-22T03:30:53;102610.44;;;17.39;100.00
13732;BME280;6937;56.096;12.664;2023-06-22T03:33:19;102618.44;;;17.41;100.00
13732;BME280;6937;56.096;12.664;2023-06-22T03:35:44;102618.44;;;17.41;100.00
13732;BME280;6937;56.096;12.664;2023-06-22T03:38:09;102622.09;;;17.40;100.00
13732;BME280;6937;56.096;12.664;2023-06-22T03:40:34;102623.97;;;17.39;100.00
13732;BME280;6937;56.096;12.664;2023-06-22T03:43:00;102636.72;;;17.37;100.00
13732;BME280;6937;56.096;12.664;2023-06-22T03:45:25;102654.22;;;17.45;100.00
13732;BME280;6937;56.096;12.664;2023-06-22T03:47:50;102660.31;;;17.35;100.00
13732;BME280;6937;56.096;12.664;2023-06-22T03:50:16;102685.78;;;17.44;100.00
13732;BME280;6937;56.096;12.664;2023-06-22T03:52:41;102685.91;;;17.43;100.00
13732;BME280;6937;56.096;12.664;2023-06-22T03:55:07;102690.47;;;17.42;100.00
13732;BME280;6937;56.096;12.664;2023-06-22T03:57:33;102696.72;;;17.43;100.00
13732;BME280;6937;56.096;12.664;2023-06-22T03:59:58;102694.69;;;17.46;100.00
13732;BME280;6937;56.096;12.664;2023-06-22T04:02:24;102703.66;;;17.47;100.00
13732;BME280;6937;56.096;12.664;2023-06-22T04:04:50;102706.25;;;17.48;100.00
13732;BME280;6937;56.096;12.664;2023-06-22T04:07:15;102707.41;;;17.44;100.00
13732;BME280;6937;56.096;12.664;2023-06-22T04:09:41;102712.41;;;17.50;100.00
13732;BME280;6937;56.096;12.664;2023-06-22T04:12:07;102717.06;;;17.48;100.00
13732;BME280;6937;56.096;12.664;2023-06-22T04:14:32;102721.94;;;17.43;100.00
13732;BME280;6937;56.096;12.664;2023-06-22T04:16:58;102720.94;;;17.44;100.00
13732;BME280;6937;56.096;12.664;2023-06-22T04:19:23;102723.66;;;17.44;100.00
13732;BME280;6937;56.096;12.664;2023-06-22T04:21:49;102717.59;;;17.40;100.00
13732;BME280;6937;56.096;12.664;2023-06-22T04:24:14;102719.88;;;17.47;100.00
13732;BME280;6937;56.096;12.664;2023-06-22T04:26:40;102724.41;;;17.46;100.00
13732;BME280;6937;56.096;12.664;2023-06-22T04:29:07;102724.84;;;17.53;100.00
13732;BME280;6937;56.096;12.664;2023-06-22T04:31:34;102729.38;;;17.52;100.00
13732;BME280;6937;56.096;12.664;2023-06-22T04:34:06;102720.09;;;17.56;100.00
13732;BME280;6937;56.096;12.664;2023-06-22T04:36:34;102728.78;;;17.61;100.00
13732;BME280;6937;56.096;12.664;2023-06-22T04:39:04;102723.59;;;17.58;100.00
13732;BME280;6937;56.096;12.664;2023-06-22T04:41:29;102738.19;;;17.68;100.00
13732;BME280;6937;56.096;12.664;2023-06-22T04:43:55;102734.53;;;17.69;100.00
13732;BME280;6937;56.096;12.664;2023-06-22T04:46:25;102729.09;;;17.57;100.00
13732;BME280;6937;56.096;12.664;2023-06-22T04:48:50;102733.09;;;17.64;100.00
13732;BME280;6937;56.096;12.664;2023-06-22T04:51:15;102733.09;;;17.64;100.00
13732;BME280;6937;56.096;12.664;2023-06-22T04:53:41;102719.56;;;17.64;100.00
13732;BME280;6937;56.096;12.664;2023-06-22T04:56:06;102726.50;;;17.68;100.00
13732;BME280;6937;56.096;12.664;2023-06-22T04:58:31;102717.97;;;17.61;100.00
13732;BME280;6937;56.096;12.664;2023-06-22T05:00:57;102708.13;;;17.60;100.00
13732;BME280;6937;56.096;12.664;2023-06-22T05:03:25;102705.72;;;17.68;100.00
13732;BME280;6937;56.096;12.664;2023-06-22T05:05:52;102700.84;;;17.73;100.00
13732;BME280;6937;56.096;12.664;2023-06-22T05:08:17;102708.75;;;17.76;100.00
13732;BME280;6937;56.096;12.664;2023-06-22T05:10:43;102697.16;;;17.74;100.00
13732;BME280;6937;56.096;12.664;2023-06-22T05:13:08;102702.47;;;17.76;100.00
13732;BME280;6937;56.096;12.664;2023-06-22T05:15:34;102696.28;;;17.74;100.00
13732;BME280;6937;56.096;12.664;2023-06-22T05:18:05;102694.69;;;17.71;100.00
13732;BME280;6937;56.096;12.664;2023-06-22T05:20:30;102683.97;;;17.70;100.00
13732;BME280;6937;56.096;12.664;2023-06-22T05:22:56;102693.50;;;17.75;100.00
13732;BME280;6937;56.096;12.664;2023-06-22T05:25:21;102686.88;;;17.79;100.00
13732;BME280;6937;56.096;12.664;2023-06-22T05:27:46;102683.09;;;17.82;100.00
13732;BME280;6937;56.096;12.664;2023-06-22T05:30:12;102675.63;;;17.85;100.00
13732;BME280;6937;56.096;12.664;2023-06-22T05:32:38;102662.22;;;17.84;100.00
13732;BME280;6937;56.096;12.664;2023-06-22T05:35:04;102651.81;;;17.91;100.00
13732;BME280;6937;56.096;12.664;2023-06-22T05:37:29;102651.78;;;18.03;100.00
13732;BME280;6937;56.096;12.664;2023-06-22T05:39:55;102630.69;;;17.96;100.00
13732;BME280;6937;56.096;12.664;2023-06-22T05:42:21;102625.56;;;18.04;100.00
13732;BME280;6937;56.096;12.664;2023-06-22T05:44:46;102636.44;;;18.15;100.00
13732;BME280;6937;56.096;12.664;2023-06-22T05:47:12;102645.44;;;18.15;100.00
13732;BME280;6937;56.096;12.664;2023-06-22T05:49:38;102618.06;;;18.07;100.00
13732;BME280;6937;56.096;12.664;2023-06-22T05:52:03;102618.19;;;18.06;100.00
13732;BME280;6937;56.096;12.664;2023-06-22T05:54:29;102624.16;;;18.11;100.00
13732;BME280;6937;56.096;12.664;2023-06-22T05:56:54;102632.44;;;18.20;100.00
13732;BME280;6937;56.096;12.664;2023-06-22T05:59:19;102615.22;;;18.21;100.00
13732;BME280;6937;56.096;12.664;2023-06-22T06:01:45;102606.09;;;18.22;100.00
13732;BME280;6937;56.096;12.664;2023-06-22T06:04:15;102602.09;;;18.28;100.00
13732;BME280;6937;56.096;12.664;2023-06-22T06:06:40;102609.97;;;18.31;100.00
13732;BME280;6937;56.096;12.664;2023-06-22T06:09:06;102603.69;;;18.30;100.00
13732;BME280;6937;56.096;12.664;2023-06-22T06:11:33;102605.19;;;18.34;100.00
13732;BME280;6937;56.096;12.664;2023-06-22T06:13:58;102609.72;;;18.34;100.00
13732;BME280;6937;56.096;12.664;2023-06-22T06:16:23;102599.91;;;18.33;100.00
13732;BME280;6937;56.096;12.664;2023-06-22T06:18:49;102591.63;;;18.34;100.00
13732;BME280;6937;56.096;12.664;2023-06-22T06:21:16;102592.03;;;18.41;100.00
13732;BME280;6937;56.096;12.664;2023-06-22T06:23:41;102594.97;;;18.38;100.00
13732;BME280;6937;56.096;12.664;2023-06-22T06:26:07;102574.19;;;18.39;100.00
13732;BME280;6937;56.096;12.664;2023-06-22T06:28:33;102582.59;;;18.47;100.00
13732;BME280;6937;56.096;12.664;2023-06-22T06:30:59;102578.78;;;18.49;100.00
13732;BME280;6937;56.096;12.664;2023-06-22T06:33:24;102569.06;;;18.47;100.00
13732;BME280;6937;56.096;12.664;2023-06-22T06:35:50;102569.91;;;18.47;100.00
13732;BME280;6937;56.096;12.664;2023-06-22T06:38:15;102569.59;;;18.52;100.00
13732;BME280;6937;56.096;12.664;2023-06-22T06:40:40;102556.47;;;18.46;100.00
13732;BME280;6937;56.096;12.664;2023-06-22T06:43:06;102569.97;;;18.58;100.00
13732;BME280;6937;56.096;12.664;2023-06-22T06:45:31;102558.63;;;18.53;100.00
13732;BME280;6937;56.096;12.664;2023-06-22T06:47:59;102550.78;;;18.61;100.00
13732;BME280;6937;56.096;12.664;2023-06-22T06:50:25;102564.34;;;18.72;100.00
13732;BME280;6937;56.096;12.664;2023-06-22T06:52:50;102558.59;;;18.77;100.00
13732;BME280;6937;56.096;12.664;2023-06-22T06:55:16;102554.41;;;18.84;100.00
13732;BME280;6937;56.096;12.664;2023-06-22T06:57:42;102527.56;;;18.81;100.00
13732;BME280;6937;56.096;12.664;2023-06-22T07:00:11;102531.50;;;18.77;100.00
13732;BME280;6937;56.096;12.664;2023-06-22T07:02:39;102532.97;;;18.81;100.00
13732;BME280;6937;56.096;12.664;2023-06-22T07:05:06;102519.91;;;18.86;100.00
13732;BME280;6937;56.096;12.664;2023-06-22T07:07:32;102500.94;;;18.86;100.00
13732;BME280;6937;56.096;12.664;2023-06-22T07:09:58;102493.19;;;18.81;100.00
13732;BME280;6937;56.096;12.664;2023-06-22T07:12:23;102498.47;;;18.83;100.00
13732;BME280;6937;56.096;12.664;2023-06-22T07:14:48;102492.44;;;18.91;100.00
13732;BME280;6937;56.096;12.664;2023-06-22T07:17:15;102486.06;;;18.80;100.00
13732;BME280;6937;56.096;12.664;2023-06-22T07:19:40;102502.41;;;18.79;100.00
13732;BME280;6937;56.096;12.664;2023-06-22T07:22:07;102500.22;;;18.84;100.00
13732;BME280;6937;56.096;12.664;2023-06-22T07:24:32;102488.25;;;18.87;100.00
13732;BME280;6937;56.096;12.664;2023-06-22T07:26:58;102467.34;;;18.89;100.00
13732;BME280;6937;56.096;12.664;2023-06-22T07:29:24;102461.03;;;18.99;100.00
13732;BME280;6937;56.096;12.664;2023-06-22T07:31:50;102459.31;;;19.09;100.00
13732;BME280;6937;56.096;12.664;2023-06-22T07:34:17;102420.63;;;19.07;100.00
13732;BME280;6937;56.096;12.664;2023-06-22T07:36:43;102407.72;;;19.00;100.00
13732;BME280;6937;56.096;12.664;2023-06-22T07:39:08;102411.38;;;19.10;100.00
13732;BME280;6937;56.096;12.664;2023-06-22T07:41:33;102416.66;;;19.22;100.00
13732;BME280;6937;56.096;12.664;2023-06-22T07:43:59;102404.81;;;19.23;100.00
13732;BME280;6937;56.096;12.664;2023-06-22T07:46:24;102389.56;;;19.22;100.00
13732;BME280;6937;56.096;12.664;2023-06-22T07:48:50;102382.50;;;19.20;100.00
13732;BME280;6937;56.096;12.664;2023-06-22T07:51:15;102371.94;;;19.17;100.00
13732;BME280;6937;56.096;12.664;2023-06-22T07:53:42;102361.22;;;19.15;100.00
13732;BME280;6937;56.096;12.664;2023-06-22T07:56:10;102362.06;;;19.27;100.00
13732;BME280;6937;56.096;12.664;2023-06-22T07:58:35;102349.50;;;19.26;100.00
13732;BME280;6937;56.096;12.664;2023-06-22T08:01:01;102354.13;;;19.35;100.00
13732;BME280;6937;56.096;12.664;2023-06-22T08:03:26;102341.56;;;19.34;100.00
13732;BME280;6937;56.096;12.664;2023-06-22T08:05:52;102340.81;;;19.43;100.00
13732;BME280;6937;56.096;12.664;2023-06-22T08:08:17;102347.66;;;19.58;100.00
13732;BME280;6937;56.096;12.664;2023-06-22T08:10:42;102330.78;;;19.55;100.00
13732;BME280;6937;56.096;12.664;2023-06-22T08:13:08;102320.31;;;19.50;100.00
13732;BME280;6937;56.096;12.664;2023-06-22T08:15:33;102324.50;;;19.54;100.00
13732;BME280;6937;56.096;12.664;2023-06-22T08:17:59;102314.72;;;19.63;100.00
13732;BME280;6937;56.096;12.664;2023-06-22T08:20:26;102308.53;;;19.61;100.00
13732;BME280;6937;56.096;12.664;2023-06-22T08:22:53;102297.25;;;19.56;100.00
13732;BME280;6937;56.096;12.664;2023-06-22T08:25:19;102298.56;;;19.61;100.00
13732;BME280;6937;56.096;12.664;2023-06-22T08:27:46;102292.41;;;19.59;100.00
13732;BME280;6937;56.096;12.664;2023-06-22T08:30:12;102299.75;;;19.68;100.00
13732;BME280;6937;56.096;12.664;2023-06-22T08:32:38;102295.72;;;19.63;100.00
13732;BME280;6937;56.096;12.664;2023-06-22T08:35:03;102297.38;;;19.75;100.00
13732;BME280;6937;56.096;12.664;2023-06-22T08:37:29;102295.19;;;19.90;100.00
13732;BME280;6937;56.096;12.664;2023-06-22T08:40:01;102271.06;;;19.96;100.00
13732;BME280;6937;56.096;12.664;2023-06-22T08:42:27;102258.94;;;19.70;100.00
13732;BME280;6937;56.096;12.664;2023-06-22T08:44:52;102244.06;;;19.44;100.00
13732;BME280;6937;56.096;12.664;2023-06-22T08:47:18;102264.09;;;19.52;100.00
13732;BME280;6937;56.096;12.664;2023-06-22T08:49:44;102292.81;;;19.55;100.00
13732;BME280;6937;56.096;12.664;2023-06-22T08:52:09;102293.22;;;19.71;100.00
13732;BME280;6937;56.096;12.664;2023-06-22T08:54:35;102299.56;;;19.81;100.00
13732;BME280;6937;56.096;12.664;2023-06-22T08:57:01;102278.75;;;19.91;100.00
13732;BME280;6937;56.096;12.664;2023-06-22T08:59:27;102279.19;;;19.87;100.00
13732;BME280;6937;56.096;12.664;2023-06-22T09:01:52;102276.84;;;19.82;100.00
13732;BME280;6937;56.096;12.664;2023-06-22T09:04:17;102287.03;;;19.69;100.00
13732;BME280;6937;56.096;12.664;2023-06-22T09:06:43;102286.66;;;19.73;100.00
13732;BME280;6937;56.096;12.664;2023-06-22T09:09:15;102287.84;;;19.81;100.00
13732;BME280;6937;56.096;12.664;2023-06-22T09:11:40;102307.22;;;19.97;100.00
13732;BME280;6937;56.096;12.664;2023-06-22T09:14:06;102294.25;;;20.00;100.00
13732;BME280;6937;56.096;12.664;2023-06-22T09:16:31;102287.84;;;20.11;100.00
13732;BME280;6937;56.096;12.664;2023-06-22T09:18:57;102271.56;;;20.11;100.00
13732;BME280;6937;56.096;12.664;2023-06-22T09:21:23;102268.25;;;20.28;100.00
13732;BME280;6937;56.096;12.664;2023-06-22T09:23:48;102261.28;;;20.35;100.00
13732;BME280;6937;56.096;12.664;2023-06-22T09:26:17;102245.22;;;20.32;100.00
13732;BME280;6937;56.096;12.664;2023-06-22T09:28:42;102235.97;;;20.35;100.00
13732;BME280;6937;56.096;12.664;2023-06-22T09:31:07;102246.44;;;20.39;100.00
13732;BME280;6937;56.096;12.664;2023-06-22T09:33:33;102243.56;;;20.41;100.00
13732;BME280;6937;56.096;12.664;2023-06-22T09:35:58;102237.50;;;20.27;100.00
13732;BME280;6937;56.096;12.664;2023-06-22T09:38:23;102233.66;;;20.30;100.00
13732;BME280;6937;56.096;12.664;2023-06-22T09:40:49;102222.09;;;20.28;100.00
13732;BME280;6937;56.096;12.664;2023-06-22T09:43:14;102223.34;;;20.24;100.00
13732;BME280;6937;56.096;12.664;2023-06-22T09:45:39;102229.13;;;20.40;100.00
13732;BME280;6937;56.096;12.664;2023-06-22T09:48:05;102213.28;;;20.45;100.00
13732;BME280;6937;56.096;12.664;2023-06-22T09:50:30;102207.56;;;20.48;100.00
13732;BME280;6937;56.096;12.664;2023-06-22T09:52:56;102191.66;;;20.44;100.00
13732;BME280;6937;56.096;12.664;2023-06-22T09:55:22;102198.00;;;20.54;100.00
13732;BME280;6937;56.096;12.664;2023-06-22T09:57:47;102189.56;;;20.57;100.00
13732;BME280;6937;56.096;12.664;2023-06-22T10:00:14;102166.09;;;20.56;100.00
13732;BME280;6937;56.096;12.664;2023-06-22T10:02:44;102159.25;;;20.81;100.00
13732;BME280;6937;56.096;12.664;2023-06-22T10:05:09;102144.38;;;20.75;100.00
13732;BME280;6937;56.096;12.664;2023-06-22T10:07:35;102119.06;;;20.65;100.00
13732;BME280;6937;56.096;12.664;2023-06-22T10:10:05;102111.19;;;20.91;100.00
13732;BME280;6937;56.096;12.664;2023-06-22T10:12:31;102075.97;;;20.99;100.00
13732;BME280;6937;56.096;12.664;2023-06-22T10:14:56;102060.78;;;20.96;100.00
13732;BME280;6937;56.096;12.664;2023-06-22T10:17:21;102016.91;;;20.91;100.00
13732;BME280;6937;56.096;12.664;2023-06-22T10:19:47;102012.72;;;21.06;100.00
13732;BME280;6937;56.096;12.664;2023-06-22T10:22:12;101993.50;;;21.08;100.00
13732;BME280;6937;56.096;12.664;2023-06-22T10:24:38;102012.31;;;21.38;100.00
13732;BME280;6937;56.096;12.664;2023-06-22T10:27:09;101997.06;;;21.55;100.00
13732;BME280;6937;56.096;12.664;2023-06-22T10:29:35;101983.94;;;21.68;100.00
13732;BME280;6937;56.096;12.664;2023-06-22T10:32:00;101958.66;;;21.58;100.00
13732;BME280;6937;56.096;12.664;2023-06-22T10:34:25;101968.25;;;21.52;100.00
13732;BME280;6937;56.096;12.664;2023-06-22T10:36:51;101953.91;;;21.60;100.00
13732;BME280;6937;56.096;12.664;2023-06-22T10:39:16;101947.84;;;21.66;100.00
13732;BME280;6937;56.096;12.664;2023-06-22T10:41:41;101949.72;;;21.65;100.00
13732;BME280;6937;56.096;12.664;2023-06-22T10:44:07;101923.13;;;21.59;100.00
13732;BME280;6937;56.096;12.664;2023-06-22T10:46:32;101937.75;;;21.76;100.00
13732;BME280;6937;56.096;12.664;2023-06-22T10:48:57;101925.44;;;21.90;100.00
13732;BME280;6937;56.096;12.664;2023-06-22T10:51:24;101911.41;;;21.94;100.00
13732;BME280;6937;56.096;12.664;2023-06-22T10:53:50;101903.00;;;21.88;100.00
13732;BME280;6937;56.096;12.664;2023-06-22T10:56:16;101883.31;;;21.76;100.00
13732;BME280;6937;56.096;12.664;2023-06-22T10:58:43;101876.06;;;21.67;100.00
13732;BME280;6937;56.096;12.664;2023-06-22T11:01:08;101899.66;;;21.76;100.00
13732;BME280;6937;56.096;12.664;2023-06-22T11:03:33;101912.72;;;21.55;100.00
13732;BME280;6937;56.096;12.664;2023-06-22T11:05:59;101928.63;;;21.67;100.00
13732;BME280;6937;56.096;12.664;2023-06-22T11:08:24;101916.19;;;21.83;100.00
13732;BME280;6937;56.096;12.664;2023-06-22T11:10:51;101900.19;;;21.80;100.00
13732;BME280;6937;56.096;12.664;2023-06-22T11:13:16;101902.84;;;22.07;100.00
13732;BME280;6937;56.096;12.664;2023-06-22T11:15:42;101894.03;;;22.13;100.00
13732;BME280;6937;56.096;12.664;2023-06-22T11:18:07;101893.25;;;22.21;100.00
13732;BME280;6937;56.096;12.664;2023-06-22T11:20:33;101882.53;;;22.19;100.00
13732;BME280;6937;56.096;12.664;2023-06-22T11:23:03;101890.69;;;22.19;100.00
13732;BME280;6937;56.096;12.664;2023-06-22T11:25:28;101883.59;;;22.08;100.00
13732;BME280;6937;56.096;12.664;2023-06-22T11:27:54;101880.75;;;22.10;100.00
13732;BME280;6937;56.096;12.664;2023-06-22T11:30:19;101882.63;;;22.35;100.00
13732;BME280;6937;56.096;12.664;2023-06-22T11:32:45;101872.50;;;22.53;100.00
13732;BME280;6937;56.096;12.664;2023-06-22T11:35:10;101856.53;;;22.58;100.00
13732;BME280;6937;56.096;12.664;2023-06-22T11:37:35;101847.03;;;22.62;100.00
13732;BME280;6937;56.096;12.664;2023-06-22T11:40:01;101853.06;;;22.74;100.00
13732;BME280;6937;56.096;12.664;2023-06-22T11:42:29;101849.03;;;22.86;100.00
13732;BME280;6937;56.096;12.664;2023-06-22T11:44:55;101846.00;;;22.97;100.00
13732;BME280;6937;56.096;12.664;2023-06-22T11:47:20;101843.06;;;22.91;100.00
13732;BME280;6937;56.096;12.664;2023-06-22T11:49:45;101830.00;;;22.94;100.00
13732;BME280;6937;56.096;12.664;2023-06-22T11:52:11;101838.50;;;22.99;100.00
13732;BME280;6937;56.096;12.664;2023-06-22T11:54:37;101824.91;;;23.07;100.00
13732;BME280;6937;56.096;12.664;2023-06-22T11:57:04;101809.19;;;22.93;100.00
13732;BME280;6937;56.096;12.664;2023-06-22T11:59:29;101817.53;;;22.92;100.00
13732;BME280;6937;56.096;12.664;2023-06-22T12:01:54;101820.16;;;23.18;100.00
13732;BME280;6937;56.096;12.664;2023-06-22T12:04:20;101806.69;;;23.32;100.00
13732;BME280;6937;56.096;12.664;2023-06-22T12:06:45;101795.13;;;23.30;100.00
13732;BME280;6937;56.096;12.664;2023-06-22T12:09:11;101794.75;;;23.17;100.00
13732;BME280;6937;56.096;12.664;2023-06-22T12:11:38;101799.53;;;23.15;100.00
13732;BME280;6937;56.096;12.664;2023-06-22T12:14:04;101797.16;;;23.28;100.00
13732;BME280;6937;56.096;12.664;2023-06-22T12:16:29;101783.06;;;23.49;100.00
13732;BME280;6937;56.096;12.664;2023-06-22T12:18:55;101801.06;;;23.26;100.00
13732;BME280;6937;56.096;12.664;2023-06-22T12:21:20;101793.06;;;23.24;100.00
13732;BME280;6937;56.096;12.664;2023-06-22T12:23:45;101798.34;;;23.34;100.00
13732;BME280;6937;56.096;12.664;2023-06-22T12:26:11;101792.22;;;23.32;100.00
13732;BME280;6937;56.096;12.664;2023-06-22T12:28:36;101795.13;;;23.38;100.00
13732;BME280;6937;56.096;12.664;2023-06-22T12:31:01;101782.03;;;23.50;100.00
13732;BME280;6937;56.096;12.664;2023-06-22T12:33:27;101781.47;;;23.38;100.00
13732;BME280;6937;56.096;12.664;2023-06-22T12:35:52;101776.06;;;23.46;100.00
13732;BME280;6937;56.096;12.664;2023-06-22T12:38:18;101773.50;;;23.69;100.00